KLM135 EKCH-EKYT
Flight info
| Callsign | KLM135 |
|---|---|
| Flight time | 0h 30m |
| Altitude | 18000 |
| Route | GOLGA T506 LAPMA L621 AAL |
| Aircraft | A320/M-SDE3FGHIRWY/LB1 |
Departure
| Time | 2026-05-04 12:42 |
|---|---|
| Airport | Copenhagen Kastrup Airport (EKCH) |
Arrival
| Time | 2026-05-04 13:13 |
|---|---|
| Airport | Aalborg Airport (EKYT) |
| Time | Latitude | Longitude | Altitude | Speed | Heading |
|---|---|---|---|---|---|
| 2026-05-04 12:19 | 55.62732 | 12.65251 | 17 ft | 0 kts | 6° |
| 2026-05-04 12:24 | 55.62711 | 12.65247 | 18 ft | 3 kts | 6° |
| 2026-05-04 12:24 | 55.62703 | 12.65245 | 17 ft | 0 kts | 6° |
| 2026-05-04 12:32 | 55.62674 | 12.65248 | 20 ft | 3 kts | 301° |
| 2026-05-04 12:32 | 55.62669 | 12.65276 | 17 ft | 0 kts | 256° |
| 2026-05-04 12:33 | 55.62669 | 12.65275 | 17 ft | 0 kts | 256° |
| 2026-05-04 12:35 | 55.62668 | 12.65275 | 17 ft | 0 kts | 256° |
| 2026-05-04 12:36 | 55.62664 | 12.65250 | 18 ft | 4 kts | 246° |
| 2026-05-04 12:36 | 55.62634 | 12.65212 | 17 ft | 7 kts | 198° |
| 2026-05-04 12:36 | 55.62577 | 12.65203 | 17 ft | 10 kts | 180° |
| 2026-05-04 12:36 | 55.62498 | 12.65205 | 17 ft | 13 kts | 179° |
| 2026-05-04 12:37 | 55.62401 | 12.65211 | 19 ft | 15 kts | 177° |
| 2026-05-04 12:37 | 55.62293 | 12.65168 | 17 ft | 18 kts | 229° |
| 2026-05-04 12:37 | 55.62304 | 12.64956 | 17 ft | 20 kts | 306° |
| 2026-05-04 12:37 | 55.62385 | 12.64767 | 17 ft | 11 kts | 297° |
| 2026-05-04 12:38 | 55.62335 | 12.64762 | 17 ft | 11 kts | 148° |
| 2026-05-04 12:38 | 55.62287 | 12.64699 | 17 ft | 12 kts | 274° |
| 2026-05-04 12:38 | 55.62287 | 12.64592 | 17 ft | 0 kts | 259° |
| 2026-05-04 12:39 | 55.62283 | 12.64567 | 18 ft | 4 kts | 256° |
| 2026-05-04 12:39 | 55.62269 | 12.64498 | 19 ft | 8 kts | 245° |
| 2026-05-04 12:39 | 55.62228 | 12.64395 | 15 ft | 13 kts | 226° |
| 2026-05-04 12:40 | 55.62139 | 12.64302 | 19 ft | 16 kts | 205° |
| 2026-05-04 12:40 | 55.62032 | 12.64209 | 18 ft | 19 kts | 207° |
| 2026-05-04 12:40 | 55.61910 | 12.64110 | 17 ft | 14 kts | 206° |
| 2026-05-04 12:40 | 55.61816 | 12.64073 | 17 ft | 2 kts | 174° |
| 2026-05-04 12:41 | 55.61792 | 12.64078 | 17 ft | 5 kts | 174° |
| 2026-05-04 12:41 | 55.61747 | 12.64085 | 18 ft | 8 kts | 174° |
| 2026-05-04 12:41 | 55.61683 | 12.64096 | 17 ft | 11 kts | 174° |
| 2026-05-04 12:41 | 55.61608 | 12.64053 | 19 ft | 13 kts | 217° |
| 2026-05-04 12:42 | 55.61428 | 12.63781 | 17 ft | 70 kts | 223° |
| 2026-05-04 12:42 | 55.60899 | 12.62939 | 19 ft | 132 kts | 222° |
| 2026-05-04 12:42 | 55.60096 | 12.61749 | 262 ft | 159 kts | 220° |
| 2026-05-04 12:42 | 55.59245 | 12.60505 | 920 ft | 158 kts | 227° |
| 2026-05-04 12:43 | 55.58406 | 12.59193 | 1587 ft | 169 kts | 225° |
| 2026-05-04 12:43 | 55.57469 | 12.57710 | 1958 ft | 193 kts | 225° |
| 2026-05-04 12:43 | 55.56435 | 12.55977 | 2424 ft | 216 kts | 235° |
| 2026-05-04 12:43 | 55.55938 | 12.53425 | 2927 ft | 234 kts | 271° |
| 2026-05-04 12:44 | 55.56114 | 12.50514 | 3818 ft | 241 kts | 279° |
| 2026-05-04 12:44 | 55.56402 | 12.47566 | 4847 ft | 245 kts | 279° |
| 2026-05-04 12:44 | 55.56709 | 12.44587 | 5862 ft | 248 kts | 279° |
| 2026-05-04 12:44 | 55.57007 | 12.41603 | 6829 ft | 251 kts | 278° |
| 2026-05-04 12:45 | 55.57297 | 12.38545 | 7788 ft | 254 kts | 278° |
| 2026-05-04 12:45 | 55.57700 | 12.35481 | 8730 ft | 260 kts | 290° |
| 2026-05-04 12:45 | 55.58709 | 12.32786 | 9645 ft | 271 kts | 311° |
| 2026-05-04 12:45 | 55.60317 | 12.30928 | 10446 ft | 288 kts | 333° |
| 2026-05-04 12:46 | 55.62385 | 12.30170 | 10771 ft | 319 kts | 348° |
| 2026-05-04 12:46 | 55.64656 | 12.29743 | 11186 ft | 335 kts | 349° |
| 2026-05-04 12:46 | 55.67007 | 12.29340 | 11893 ft | 342 kts | 349° |
| 2026-05-04 12:46 | 55.69390 | 12.28937 | 12694 ft | 346 kts | 349° |
| 2026-05-04 12:47 | 55.71797 | 12.28520 | 13467 ft | 349 kts | 348° |
| 2026-05-04 12:47 | 55.74228 | 12.28083 | 14181 ft | 353 kts | 348° |
| 2026-05-04 12:47 | 55.76659 | 12.27440 | 14855 ft | 352 kts | 340° |
| 2026-05-04 12:47 | 55.78967 | 12.26044 | 15529 ft | 349 kts | 329° |
| 2026-05-04 12:48 | 55.81081 | 12.23967 | 16206 ft | 348 kts | 323° |
| 2026-05-04 12:48 | 55.83161 | 12.21733 | 16907 ft | 351 kts | 323° |
| 2026-05-04 12:48 | 55.85262 | 12.19479 | 17590 ft | 354 kts | 323° |
| 2026-05-04 12:48 | 55.87355 | 12.17236 | 17872 ft | 356 kts | 323° |
| 2026-05-04 12:49 | 55.89495 | 12.14939 | 17933 ft | 364 kts | 323° |
| 2026-05-04 12:49 | 55.91678 | 12.12591 | 17933 ft | 368 kts | 323° |
| 2026-05-04 12:49 | 55.93881 | 12.10224 | 17929 ft | 369 kts | 323° |
| 2026-05-04 12:49 | 55.96083 | 12.07859 | 17928 ft | 370 kts | 323° |
| 2026-05-04 12:50 | 55.98288 | 12.05495 | 17930 ft | 370 kts | 323° |
| 2026-05-04 12:50 | 56.00488 | 12.03127 | 17930 ft | 369 kts | 323° |
| 2026-05-04 12:50 | 56.02684 | 12.00756 | 17928 ft | 368 kts | 323° |
| 2026-05-04 12:50 | 56.04882 | 11.98401 | 17934 ft | 368 kts | 324° |
| 2026-05-04 12:51 | 56.07103 | 11.96111 | 17923 ft | 369 kts | 325° |
| 2026-05-04 12:51 | 56.09343 | 11.93865 | 17924 ft | 369 kts | 325° |
| 2026-05-04 12:51 | 56.11590 | 11.91628 | 17928 ft | 369 kts | 325° |
| 2026-05-04 12:51 | 56.13834 | 11.89387 | 17934 ft | 369 kts | 325° |
| 2026-05-04 12:52 | 56.16045 | 11.87165 | 17932 ft | 369 kts | 325° |
| 2026-05-04 12:52 | 56.18280 | 11.84901 | 17930 ft | 369 kts | 325° |
| 2026-05-04 12:52 | 56.20515 | 11.82626 | 17931 ft | 369 kts | 325° |
| 2026-05-04 12:52 | 56.22749 | 11.80342 | 17933 ft | 369 kts | 324° |
| 2026-05-04 12:53 | 56.24976 | 11.78059 | 17934 ft | 369 kts | 324° |
| 2026-05-04 12:53 | 56.27210 | 11.75765 | 17935 ft | 369 kts | 324° |
| 2026-05-04 12:53 | 56.29447 | 11.73496 | 17955 ft | 370 kts | 325° |
| 2026-05-04 12:53 | 56.31679 | 11.71202 | 17949 ft | 369 kts | 324° |
| 2026-05-04 12:54 | 56.33878 | 11.68833 | 17945 ft | 368 kts | 323° |
| 2026-05-04 12:54 | 56.36043 | 11.66388 | 17942 ft | 367 kts | 322° |
| 2026-05-04 12:54 | 56.38184 | 11.63883 | 17941 ft | 367 kts | 321° |
| 2026-05-04 12:54 | 56.40313 | 11.61349 | 17938 ft | 366 kts | 321° |
| 2026-05-04 12:55 | 56.42434 | 11.58805 | 17936 ft | 366 kts | 321° |
| 2026-05-04 12:55 | 56.44558 | 11.56264 | 17947 ft | 366 kts | 321° |
| 2026-05-04 12:55 | 56.46652 | 11.53765 | 17944 ft | 366 kts | 321° |
| 2026-05-04 12:55 | 56.48778 | 11.51239 | 17940 ft | 365 kts | 321° |
| 2026-05-04 12:56 | 56.50901 | 11.48717 | 17940 ft | 365 kts | 321° |
| 2026-05-04 12:56 | 56.53024 | 11.46192 | 17928 ft | 365 kts | 321° |
| 2026-05-04 12:56 | 56.55151 | 11.43655 | 17927 ft | 365 kts | 321° |
| 2026-05-04 12:56 | 56.57258 | 11.41134 | 17840 ft | 360 kts | 321° |
| 2026-05-04 12:57 | 56.59316 | 11.38679 | 17592 ft | 348 kts | 321° |
| 2026-05-04 12:57 | 56.61274 | 11.36239 | 17316 ft | 334 kts | 316° |
| 2026-05-04 12:57 | 56.62957 | 11.33443 | 17060 ft | 324 kts | 308° |
| 2026-05-04 12:57 | 56.64351 | 11.30276 | 16788 ft | 318 kts | 301° |
| 2026-05-04 12:58 | 56.65621 | 11.26982 | 16530 ft | 318 kts | 301° |
| 2026-05-04 12:58 | 56.66891 | 11.23709 | 16270 ft | 317 kts | 301° |
| 2026-05-04 12:58 | 56.68159 | 11.20445 | 16009 ft | 316 kts | 301° |
| 2026-05-04 12:58 | 56.69428 | 11.17188 | 15752 ft | 315 kts | 301° |
| 2026-05-04 12:59 | 56.70691 | 11.13945 | 15500 ft | 314 kts | 301° |
| 2026-05-04 12:59 | 56.71950 | 11.10710 | 15249 ft | 313 kts | 301° |
| 2026-05-04 12:59 | 56.73189 | 11.07520 | 15002 ft | 312 kts | 301° |
| 2026-05-04 12:59 | 56.74436 | 11.04298 | 14755 ft | 311 kts | 301° |
| 2026-05-04 13:00 | 56.75670 | 11.01104 | 14419 ft | 306 kts | 301° |
| 2026-05-04 13:00 | 56.76890 | 10.97945 | 13990 ft | 303 kts | 301° |
| 2026-05-04 13:00 | 56.78099 | 10.94803 | 13522 ft | 302 kts | 301° |
| 2026-05-04 13:00 | 56.79299 | 10.91675 | 13043 ft | 300 kts | 301° |
| 2026-05-04 13:01 | 56.80486 | 10.88579 | 12604 ft | 297 kts | 301° |
| 2026-05-04 13:01 | 56.81667 | 10.85499 | 12162 ft | 295 kts | 301° |
| 2026-05-04 13:01 | 56.82842 | 10.82437 | 11728 ft | 293 kts | 301° |
| 2026-05-04 13:01 | 56.84007 | 10.79394 | 11299 ft | 292 kts | 301° |
| 2026-05-04 13:02 | 56.85166 | 10.76360 | 10863 ft | 290 kts | 301° |
| 2026-05-04 13:02 | 56.86319 | 10.73335 | 10437 ft | 289 kts | 301° |
| 2026-05-04 13:02 | 56.87461 | 10.70336 | 10160 ft | 283 kts | 301° |
| 2026-05-04 13:02 | 56.88565 | 10.67439 | 10023 ft | 273 kts | 301° |
| 2026-05-04 13:03 | 56.89640 | 10.64621 | 9824 ft | 266 kts | 301° |
| 2026-05-04 13:03 | 56.90698 | 10.61844 | 9695 ft | 266 kts | 301° |
| 2026-05-04 13:03 | 56.91761 | 10.59040 | 9241 ft | 269 kts | 301° |
| 2026-05-04 13:03 | 56.92820 | 10.56240 | 8838 ft | 268 kts | 302° |
| 2026-05-04 13:04 | 56.93876 | 10.53449 | 8298 ft | 263 kts | 302° |
| 2026-05-04 13:04 | 56.94910 | 10.50718 | 7673 ft | 259 kts | 302° |
| 2026-05-04 13:04 | 56.95928 | 10.48023 | 7050 ft | 256 kts | 302° |
| 2026-05-04 13:04 | 56.96931 | 10.45363 | 6505 ft | 251 kts | 302° |
| 2026-05-04 13:05 | 56.97903 | 10.42785 | 5973 ft | 248 kts | 302° |
| 2026-05-04 13:05 | 56.98882 | 10.40183 | 5456 ft | 247 kts | 302° |
| 2026-05-04 13:05 | 56.99853 | 10.37594 | 4954 ft | 246 kts | 302° |
| 2026-05-04 13:05 | 57.00834 | 10.34969 | 4450 ft | 252 kts | 302° |
| 2026-05-04 13:06 | 57.01816 | 10.32344 | 4200 ft | 247 kts | 303° |
| 2026-05-04 13:06 | 57.02772 | 10.29801 | 4046 ft | 234 kts | 303° |
| 2026-05-04 13:06 | 57.03671 | 10.27461 | 3944 ft | 215 kts | 307° |
| 2026-05-04 13:06 | 57.04752 | 10.25637 | 3846 ft | 208 kts | 323° |
| 2026-05-04 13:07 | 57.06005 | 10.24413 | 3752 ft | 199 kts | 329° |
| 2026-05-04 13:07 | 57.07229 | 10.23311 | 3660 ft | 194 kts | 329° |
| 2026-05-04 13:07 | 57.08434 | 10.22219 | 3577 ft | 193 kts | 329° |
| 2026-05-04 13:07 | 57.09625 | 10.21107 | 3490 ft | 190 kts | 323° |
| 2026-05-04 13:08 | 57.10600 | 10.19527 | 3411 ft | 185 kts | 305° |
| 2026-05-04 13:08 | 57.11200 | 10.17458 | 3310 ft | 185 kts | 287° |
| 2026-05-04 13:08 | 57.11366 | 10.15127 | 3053 ft | 185 kts | 267° |
| 2026-05-04 13:08 | 57.11225 | 10.12776 | 2797 ft | 184 kts | 265° |
| 2026-05-04 13:09 | 57.11082 | 10.10475 | 2554 ft | 184 kts | 266° |
| 2026-05-04 13:09 | 57.10938 | 10.08155 | 2312 ft | 180 kts | 265° |
| 2026-05-04 13:09 | 57.10799 | 10.05939 | 2047 ft | 167 kts | 266° |
| 2026-05-04 13:09 | 57.10672 | 10.03905 | 1806 ft | 154 kts | 265° |
| 2026-05-04 13:10 | 57.10557 | 10.02065 | 1611 ft | 136 kts | 266° |
| 2026-05-04 13:10 | 57.10453 | 10.00413 | 1450 ft | 126 kts | 267° |
| 2026-05-04 13:10 | 57.10354 | 9.98826 | 1268 ft | 123 kts | 267° |
| 2026-05-04 13:10 | 57.10257 | 9.97278 | 1101 ft | 121 kts | 266° |
| 2026-05-04 13:11 | 57.10193 | 9.96255 | 988 ft | 121 kts | 265° |
| 2026-05-04 13:11 | 57.10096 | 9.94719 | 816 ft | 121 kts | 265° |
| 2026-05-04 13:11 | 57.09999 | 9.93182 | 647 ft | 121 kts | 265° |
| 2026-05-04 13:11 | 57.09901 | 9.91644 | 484 ft | 121 kts | 266° |
| 2026-05-04 13:12 | 57.09804 | 9.90117 | 330 ft | 120 kts | 267° |
| 2026-05-04 13:12 | 57.09706 | 9.88571 | 160 ft | 122 kts | 265° |
| 2026-05-04 13:12 | 57.09608 | 9.87030 | 28 ft | 117 kts | 264° |
| 2026-05-04 13:12 | 57.09540 | 9.85838 | 19 ft | 71 kts | 264° |
| 2026-05-04 13:13 | 57.09489 | 9.85056 | 19 ft | 56 kts | 264° |
| 2026-05-04 13:13 | 57.09449 | 9.84521 | 19 ft | 26 kts | 263° |
| 2026-05-04 13:13 | 57.09399 | 9.84298 | 19 ft | 17 kts | 178° |
| 2026-05-04 13:13 | 57.09298 | 9.84439 | 19 ft | 20 kts | 138° |
| 2026-05-04 13:14 | 57.09270 | 9.84686 | 19 ft | 22 kts | 81° |
| 2026-05-04 13:14 | 57.09286 | 9.84977 | 19 ft | 24 kts | 85° |
| 2026-05-04 13:14 | 57.09310 | 9.85301 | 19 ft | 27 kts | 82° |
| 2026-05-04 13:14 | 57.09332 | 9.85657 | 19 ft | 30 kts | 84° |
| 2026-05-04 13:15 | 57.09301 | 9.85953 | 19 ft | 25 kts | 150° |
| 2026-05-04 13:15 | 57.09153 | 9.86162 | 19 ft | 28 kts | 143° |
| 2026-05-04 13:15 | 57.08985 | 9.86389 | 19 ft | 32 kts | 142° |
| 2026-05-04 13:15 | 57.08807 | 9.86650 | 19 ft | 27 kts | 142° |
| 2026-05-04 13:16 | 57.08702 | 9.86817 | 19 ft | 12 kts | 115° |
| 2026-05-04 13:16 | 57.08736 | 9.86928 | 19 ft | 9 kts | 53° |
| 2026-05-04 13:16 | 57.08740 | 9.86939 | 19 ft | 0 kts | 54° |